createdAt,value
2022-08-08T00:00:52.190Z,100.00
2022-08-08T00:02:03.953Z,100.00
2022-08-08T00:02:59.710Z,100.00
2022-08-08T00:03:59.993Z,100.00
2022-08-08T00:05:02.264Z,100.00
2022-08-08T00:06:07.727Z,100.00
2022-08-08T00:07:19.273Z,100.00
2022-08-08T00:08:07.270Z,100.00
2022-08-08T00:09:20.876Z,100.00
2022-08-08T00:10:28.425Z,100.00
2022-08-08T00:11:25.225Z,100.00
2022-08-08T00:12:26.689Z,100.00
2022-08-08T00:14:14.712Z,100.00
2022-08-08T00:15:09.523Z,100.00
2022-08-08T00:16:09.915Z,100.00
2022-08-08T00:17:22.583Z,100.00
2022-08-08T00:18:20.464Z,100.00
2022-08-08T00:19:20.939Z,100.00
2022-08-08T00:20:14.449Z,100.00
2022-08-08T00:21:05.199Z,100.00
2022-08-08T00:22:04.001Z,100.00
2022-08-08T00:22:54.805Z,100.00
2022-08-08T00:23:51.451Z,100.00
2022-08-08T00:24:49.466Z,100.00
2022-08-08T00:25:46.228Z,100.00
2022-08-08T00:26:45.991Z,100.00
2022-08-08T00:27:37.675Z,100.00
2022-08-08T00:28:36.687Z,100.00
2022-08-08T00:29:45.441Z,100.00
2022-08-08T00:30:45.152Z,100.00
2022-08-08T00:32:28.634Z,100.00
2022-08-08T00:33:11.456Z,100.00
2022-08-08T00:34:31.801Z,100.00
2022-08-08T00:35:40.162Z,100.00
2022-08-08T00:36:34.953Z,100.00
2022-08-08T00:37:48.194Z,100.00
2022-08-08T00:39:03.201Z,100.00
2022-08-08T00:41:12.844Z,100.00
2022-08-08T00:42:09.026Z,100.00
2022-08-08T00:43:59.135Z,100.00
2022-08-08T00:45:34.299Z,100.00
2022-08-08T00:46:58.166Z,100.00
2022-08-08T00:48:29.098Z,100.00
2022-08-08T00:49:58.476Z,100.00
2022-08-08T00:51:09.767Z,100.00
2022-08-08T00:52:24.282Z,100.00
2022-08-08T00:53:43.534Z,100.00
2022-08-08T00:55:22.075Z,100.00
2022-08-08T00:56:53.164Z,100.00
2022-08-08T00:58:23.687Z,100.00
2022-08-08T00:59:43.950Z,100.00
2022-08-08T01:00:52.386Z,100.00
2022-08-08T01:03:15.546Z,100.00
2022-08-08T01:04:02.597Z,100.00
2022-08-08T01:05:02.303Z,100.00
2022-08-08T01:06:07.811Z,100.00
2022-08-08T01:07:06.897Z,100.00
2022-08-08T01:08:46.689Z,100.00
2022-08-08T01:10:24.624Z,100.00
2022-08-08T01:11:19.981Z,100.00
2022-08-08T01:12:44.088Z,100.00
2022-08-08T01:13:58.489Z,100.00
2022-08-08T01:15:43.480Z,100.00
2022-08-08T01:16:56.246Z,100.00
2022-08-08T01:18:16.389Z,100.00
2022-08-08T01:20:13.159Z,100.00
2022-08-08T01:22:10.216Z,100.00
2022-08-08T01:23:03.098Z,100.00
2022-08-08T01:24:20.279Z,100.00
2022-08-08T01:25:46.076Z,100.00
2022-08-08T01:27:16.276Z,100.00
2022-08-08T01:28:36.729Z,100.00
2022-08-08T01:29:59.125Z,100.00
2022-08-08T01:30:59.833Z,100.00
2022-08-08T01:32:22.725Z,100.00
2022-08-08T01:33:54.440Z,100.00
2022-08-08T01:34:55.931Z,100.00
2022-08-08T01:35:52.367Z,100.00
2022-08-08T01:37:13.674Z,100.00
2022-08-08T01:38:35.435Z,100.00
2022-08-08T01:39:51.204Z,100.00
2022-08-08T01:40:57.177Z,100.00
2022-08-08T01:42:06.007Z,100.00
2022-08-08T01:43:25.884Z,100.00
2022-08-08T01:44:21.948Z,100.00
2022-08-08T01:45:56.103Z,100.00
2022-08-08T01:48:23.542Z,100.00
2022-08-08T01:48:46.266Z,100.00
2022-08-08T01:49:51.878Z,100.00
2022-08-08T01:51:29.852Z,100.00
2022-08-08T01:55:14.993Z,100.00
2022-08-08T01:55:25.697Z,100.00
2022-08-08T01:56:28.602Z,100.00
2022-08-08T01:57:17.575Z,100.00
2022-08-08T01:58:46.931Z,100.00
2022-08-08T02:00:02.314Z,100.00
2022-08-08T02:01:16.080Z,100.00
2022-08-08T02:02:13.983Z,100.00
2022-08-08T02:03:56.747Z,100.00
2022-08-08T02:04:57.569Z,100.00
2022-08-08T02:06:31.839Z,100.00
2022-08-08T02:08:05.666Z,100.00
2022-08-08T02:09:18.297Z,100.00
2022-08-08T02:10:53.481Z,100.00
2022-08-08T02:11:59.795Z,100.00
2022-08-08T02:13:10.941Z,100.00
2022-08-08T02:14:55.683Z,100.00
2022-08-08T02:16:20.790Z,100.00
2022-08-08T02:17:20.489Z,100.00
2022-08-08T02:18:18.999Z,100.00
2022-08-08T02:19:41.450Z,100.00
2022-08-08T02:21:02.199Z,100.00
2022-08-08T02:22:23.938Z,100.00
2022-08-08T02:23:31.901Z,100.00
2022-08-08T02:24:29.512Z,100.00
2022-08-08T02:25:47.112Z,100.00
2022-08-08T02:26:57.959Z,100.00
2022-08-08T02:28:01.044Z,100.00
2022-08-08T02:29:19.004Z,100.00
2022-08-08T02:30:21.177Z,100.00
2022-08-08T02:31:53.963Z,100.00
2022-08-08T02:33:10.806Z,100.00
2022-08-08T02:34:33.034Z,100.00
2022-08-08T02:36:03.473Z,100.00
2022-08-08T02:36:51.172Z,100.00
2022-08-08T02:38:05.576Z,100.00
2022-08-08T02:39:40.755Z,100.00
2022-08-08T02:41:17.871Z,100.00
2022-08-08T02:42:42.067Z,100.00
2022-08-08T02:44:39.044Z,100.00
2022-08-08T02:45:24.601Z,100.00
2022-08-08T02:46:28.740Z,100.00
2022-08-08T02:47:56.500Z,100.00
2022-08-08T02:49:48.282Z,100.00
2022-08-08T02:50:55.561Z,100.00
2022-08-08T02:52:32.583Z,100.00
2022-08-08T02:53:35.057Z,100.00
2022-08-08T02:54:43.716Z,100.00
2022-08-08T02:56:09.244Z,100.00
2022-08-08T02:57:25.084Z,100.00
2022-08-08T02:59:02.396Z,100.00
2022-08-08T03:00:31.633Z,100.00
2022-08-08T03:01:49.894Z,100.00
2022-08-08T03:03:04.910Z,100.00
2022-08-08T03:05:05.204Z,100.00
2022-08-08T03:06:24.184Z,100.00
2022-08-08T03:07:24.297Z,100.00
2022-08-08T03:08:28.647Z,100.00
2022-08-08T03:09:49.887Z,100.00
2022-08-08T03:11:48.071Z,100.00
2022-08-08T03:13:01.392Z,100.00
2022-08-08T03:16:02.227Z,100.00
2022-08-08T03:16:06.737Z,100.00
2022-08-08T03:17:39.840Z,100.00
2022-08-08T03:18:45.466Z,100.00
2022-08-08T03:20:00.117Z,100.00
2022-08-08T03:20:52.488Z,100.00
2022-08-08T03:21:58.266Z,100.00
2022-08-08T03:22:57.268Z,100.00
2022-08-08T03:23:57.431Z,100.00
2022-08-08T03:24:46.786Z,100.00
2022-08-08T03:25:36.272Z,100.00
2022-08-08T03:26:32.534Z,100.00
2022-08-08T03:27:41.854Z,100.00
2022-08-08T03:28:44.147Z,100.00
2022-08-08T03:29:54.821Z,100.00
2022-08-08T03:30:48.815Z,100.00
2022-08-08T03:32:06.238Z,100.00
2022-08-08T03:33:55.960Z,100.00
2022-08-08T03:34:22.364Z,100.00
2022-08-08T03:35:13.484Z,100.00
2022-08-08T03:36:02.754Z,100.00
2022-08-08T03:36:50.507Z,100.00
2022-08-08T03:38:53.107Z,100.00
2022-08-08T03:38:54.010Z,100.00
2022-08-08T03:39:51.686Z,100.00
2022-08-08T03:40:51.961Z,100.00
2022-08-08T03:42:11.795Z,100.00
2022-08-08T03:42:50.809Z,100.00
2022-08-08T03:43:55.580Z,100.00
2022-08-08T03:44:52.006Z,100.00
2022-08-08T03:46:06.289Z,100.00
2022-08-08T03:46:49.498Z,100.00
2022-08-08T03:47:45.957Z,100.00
2022-08-08T03:49:09.987Z,100.00
2022-08-08T03:50:00.437Z,100.00
2022-08-08T03:50:50.542Z,100.00
2022-08-08T03:51:50.621Z,100.00
2022-08-08T03:52:45.166Z,100.00
2022-08-08T03:53:47.307Z,100.00
2022-08-08T03:54:40.749Z,100.00
2022-08-08T03:55:55.867Z,100.00
2022-08-08T03:56:46.290Z,100.00
2022-08-08T03:58:35.874Z,100.00
2022-08-08T03:58:52.169Z,100.00
2022-08-08T04:00:08.192Z,100.00
2022-08-08T04:01:02.708Z,100.00
2022-08-08T04:02:31.574Z,100.00
2022-08-08T04:03:11.634Z,100.00
2022-08-08T04:04:01.680Z,100.00
2022-08-08T04:04:55.446Z,100.00
2022-08-08T04:05:48.941Z,100.00
2022-08-08T04:06:40.206Z,100.00
2022-08-08T04:07:35.742Z,100.00
2022-08-08T04:08:33.664Z,100.00
2022-08-08T04:09:24.789Z,100.00
2022-08-08T04:10:12.355Z,100.00
2022-08-08T04:11:03.119Z,100.00
2022-08-08T04:12:01.081Z,100.00
2022-08-08T04:13:17.637Z,100.00
2022-08-08T04:14:33.804Z,100.00
2022-08-08T04:15:14.905Z,100.00
2022-08-08T04:16:05.642Z,100.00
2022-08-08T04:17:02.402Z,100.00
2022-08-08T04:17:59.440Z,100.00
2022-08-08T04:18:48.899Z,100.00
2022-08-08T04:19:45.569Z,100.00
2022-08-08T04:20:32.840Z,100.00
2022-08-08T04:21:22.789Z,100.00
2022-08-08T04:22:16.499Z,100.00
2022-08-08T04:23:07.776Z,100.00
2022-08-08T04:24:12.045Z,100.00
2022-08-08T04:25:02.244Z,100.00
2022-08-08T04:25:50.052Z,100.00
2022-08-08T04:26:56.687Z,100.00
2022-08-08T04:28:03.262Z,100.00
2022-08-08T04:28:51.421Z,100.00
2022-08-08T04:29:44.727Z,100.00
2022-08-08T04:30:48.306Z,100.00
2022-08-08T04:31:59.769Z,100.00
2022-08-08T04:32:41.699Z,100.00
2022-08-08T04:33:41.598Z,100.00
2022-08-08T04:34:32.402Z,100.00
2022-08-08T04:35:34.503Z,100.00
2022-08-08T04:36:27.738Z,100.00
2022-08-08T04:37:17.661Z,100.00
2022-08-08T04:38:04.263Z,100.00
2022-08-08T04:39:47.972Z,100.00
2022-08-08T04:40:07.821Z,100.00
2022-08-08T04:41:04.814Z,100.00
2022-08-08T04:41:54.300Z,100.00
2022-08-08T04:42:46.552Z,100.00
2022-08-08T04:43:49.835Z,100.00
2022-08-08T04:44:40.827Z,100.00
2022-08-08T04:45:27.639Z,100.00
2022-08-08T04:46:16.341Z,100.00
2022-08-08T04:47:06.027Z,100.00
2022-08-08T04:48:00.312Z,100.00
2022-08-08T04:48:50.304Z,100.00
2022-08-08T04:49:59.035Z,100.00
2022-08-08T04:50:44.668Z,100.00
2022-08-08T04:51:55.311Z,100.00
2022-08-08T04:52:43.831Z,100.00
2022-08-08T04:54:27.075Z,100.00
2022-08-08T04:54:44.293Z,100.00
2022-08-08T04:55:47.001Z,100.00
2022-08-08T04:56:34.960Z,100.00
2022-08-08T04:57:22.232Z,100.00
2022-08-08T04:58:13.850Z,100.00
2022-08-08T04:59:05.296Z,100.00
2022-08-08T04:59:59.436Z,100.00
2022-08-08T05:00:48.263Z,100.00
2022-08-08T05:01:48.018Z,100.00
2022-08-08T05:02:36.477Z,100.00
2022-08-08T05:04:08.224Z,100.00
2022-08-08T05:04:35.980Z,100.00
2022-08-08T05:05:45.321Z,100.00
2022-08-08T05:06:30.437Z,100.00
2022-08-08T05:07:17.282Z,100.00
2022-08-08T05:08:05.489Z,100.00
2022-08-08T05:08:53.355Z,100.00
2022-08-08T05:09:43.480Z,100.00
2022-08-08T05:10:32.105Z,100.00
2022-08-08T05:11:23.871Z,100.00
2022-08-08T05:12:20.939Z,100.00
2022-08-08T05:13:17.576Z,100.00
2022-08-08T05:14:05.343Z,100.00
2022-08-08T05:14:53.266Z,100.00
2022-08-08T05:16:51.608Z,100.00
2022-08-08T05:16:53.306Z,100.00
2022-08-08T05:17:54.162Z,100.00
2022-08-08T05:18:43.381Z,100.00
2022-08-08T05:20:09.840Z,100.00
2022-08-08T05:20:50.081Z,100.00
2022-08-08T05:21:57.937Z,100.00
2022-08-08T05:22:45.352Z,100.00
2022-08-08T05:23:32.893Z,100.00
2022-08-08T05:24:28.426Z,100.00
2022-08-08T05:25:21.460Z,100.00
2022-08-08T05:26:09.051Z,100.00
2022-08-08T05:27:00.741Z,100.00
2022-08-08T05:27:48.415Z,100.00
2022-08-08T05:28:55.736Z,100.00
2022-08-08T05:29:42.260Z,100.00
2022-08-08T05:30:29.953Z,100.00
2022-08-08T05:32:03.146Z,100.00
2022-08-08T05:32:24.583Z,100.00
2022-08-08T05:33:13.588Z,100.00
2022-08-08T05:34:07.308Z,100.00
2022-08-08T05:35:01.822Z,100.00
2022-08-08T05:35:54.454Z,100.00
2022-08-08T05:36:44.928Z,100.00
2022-08-08T05:37:52.160Z,100.00
2022-08-08T05:38:47.929Z,100.00
2022-08-08T05:39:36.426Z,100.00
2022-08-08T05:40:27.982Z,100.00
2022-08-08T05:41:23.484Z,100.00
2022-08-08T05:42:14.509Z,100.00
2022-08-08T05:43:17.220Z,100.00
2022-08-08T05:44:30.859Z,100.00
2022-08-08T05:45:31.461Z,100.00
2022-08-08T05:46:26.985Z,100.00
2022-08-08T05:47:15.603Z,100.00
2022-08-08T05:48:11.868Z,100.00
2022-08-08T05:49:07.554Z,100.00
2022-08-08T05:49:58.975Z,100.00
2022-08-08T05:50:48.213Z,100.00
2022-08-08T05:51:48.634Z,100.00
2022-08-08T05:52:38.518Z,100.00
2022-08-08T05:54:24.516Z,100.00
2022-08-08T05:54:50.317Z,100.00
2022-08-08T05:56:07.679Z,100.00
2022-08-08T05:56:53.025Z,100.00
2022-08-08T05:58:04.935Z,100.00
2022-08-08T05:59:05.109Z,100.00
2022-08-08T06:00:22.740Z,100.00
2022-08-08T06:01:55.638Z,100.00
2022-08-08T06:02:48.020Z,100.00
2022-08-08T06:03:43.709Z,100.00
2022-08-08T06:04:40.671Z,100.00
2022-08-08T06:05:36.377Z,100.00
2022-08-08T06:06:32.648Z,100.00
2022-08-08T06:07:22.988Z,100.00
2022-08-08T06:08:33.089Z,100.00
2022-08-08T06:09:58.785Z,100.00
2022-08-08T06:10:44.685Z,100.00
2022-08-08T06:11:34.064Z,100.00
2022-08-08T06:12:36.470Z,100.00
2022-08-08T06:13:26.714Z,100.00
2022-08-08T06:14:22.934Z,100.00
2022-08-08T06:15:12.539Z,100.00
2022-08-08T06:16:06.704Z,100.00
2022-08-08T06:17:50.587Z,100.00
2022-08-08T06:18:30.035Z,100.00
2022-08-08T06:19:18.771Z,100.00
2022-08-08T06:20:11.953Z,100.00
2022-08-08T06:21:03.764Z,100.00
2022-08-08T06:21:59.459Z,100.00
2022-08-08T06:22:56.465Z,100.00
2022-08-08T06:24:03.381Z,100.00
2022-08-08T06:24:53.629Z,100.00
2022-08-08T06:26:38.413Z,100.00
2022-08-08T06:27:05.002Z,100.00
2022-08-08T06:27:56.476Z,100.00
2022-08-08T06:28:54.039Z,100.00
2022-08-08T06:30:04.979Z,100.00
2022-08-08T06:31:03.179Z,100.00
2022-08-08T06:32:09.858Z,100.00
2022-08-08T06:33:01.228Z,100.00
2022-08-08T06:34:25.725Z,100.00
2022-08-08T06:36:08.637Z,100.00
2022-08-08T06:36:31.965Z,100.00
2022-08-08T06:37:25.447Z,100.00
2022-08-08T06:38:21.625Z,100.00
2022-08-08T06:39:15.370Z,100.00
2022-08-08T06:40:12.855Z,100.00
2022-08-08T06:41:13.461Z,100.00
2022-08-08T06:42:09.343Z,100.00
2022-08-08T06:43:10.316Z,100.00
2022-08-08T06:44:18.445Z,100.00
2022-08-08T06:45:07.206Z,100.00
2022-08-08T06:45:56.233Z,100.00
2022-08-08T06:46:44.472Z,100.00
2022-08-08T06:47:33.813Z,100.00
2022-08-08T06:48:39.027Z,100.00
2022-08-08T06:49:54.924Z,100.00
2022-08-08T06:50:38.161Z,100.00
2022-08-08T06:51:31.400Z,100.00
2022-08-08T06:52:35.644Z,100.00
2022-08-08T06:53:30.281Z,100.00
2022-08-08T06:54:31.517Z,100.00
2022-08-08T06:55:21.581Z,100.00
2022-08-08T06:56:09.313Z,100.00
2022-08-08T06:56:56.355Z,100.00
2022-08-08T06:57:54.856Z,100.00
2022-08-08T06:58:45.537Z,100.00
2022-08-08T06:59:34.350Z,100.00
2022-08-08T07:00:43.050Z,100.00
2022-08-08T07:02:17.683Z,100.00
2022-08-08T07:03:08.340Z,100.00
2022-08-08T07:04:37.509Z,100.00
2022-08-08T07:05:24.929Z,100.00
2022-08-08T07:06:23.107Z,100.00
2022-08-08T07:07:36.983Z,100.00
2022-08-08T07:08:33.548Z,100.00
2022-08-08T07:09:21.807Z,100.00
2022-08-08T07:10:22.103Z,100.00
2022-08-08T07:11:22.306Z,100.00
2022-08-08T07:12:17.412Z,100.00
2022-08-08T07:13:11.107Z,100.00
2022-08-08T07:14:08.033Z,100.00
2022-08-08T07:15:05.910Z,100.00
2022-08-08T07:16:10.578Z,100.00
2022-08-08T07:17:09.207Z,100.00
2022-08-08T07:18:35.100Z,100.00
2022-08-08T07:19:38.104Z,100.00
2022-08-08T07:20:29.543Z,100.00
2022-08-08T07:21:22.526Z,100.00
2022-08-08T07:22:24.758Z,100.00
2022-08-08T07:24:01.792Z,100.00
2022-08-08T07:24:46.503Z,100.00
2022-08-08T07:25:39.807Z,100.00
2022-08-08T07:26:50.861Z,100.00
2022-08-08T07:28:00.601Z,100.00
2022-08-08T07:28:51.442Z,100.00
2022-08-08T07:30:02.397Z,100.00
2022-08-08T07:30:58.656Z,100.00
2022-08-08T07:31:48.328Z,100.00
2022-08-08T07:32:39.291Z,100.00
2022-08-08T07:33:38.213Z,100.00
2022-08-08T07:34:48.312Z,100.00
2022-08-08T07:35:47.171Z,100.00
2022-08-08T07:36:37.229Z,100.00
2022-08-08T07:37:42.652Z,100.00
2022-08-08T07:38:52.947Z,100.00
2022-08-08T07:39:55.957Z,100.00
2022-08-08T07:40:47.730Z,100.00
2022-08-08T07:42:03.471Z,100.00
2022-08-08T07:42:52.443Z,100.00
2022-08-08T07:43:42.254Z,100.00
2022-08-08T07:44:43.733Z,100.00
2022-08-08T07:45:34.290Z,100.00
2022-08-08T07:46:29.011Z,100.00
2022-08-08T07:47:29.221Z,100.00
2022-08-08T07:48:30.208Z,100.00
2022-08-08T07:49:17.727Z,100.00
2022-08-08T07:50:05.853Z,100.00
2022-08-08T07:50:58.640Z,100.00
2022-08-08T07:51:53.674Z,100.00
2022-08-08T07:52:51.385Z,100.00
2022-08-08T07:54:01.379Z,100.00
2022-08-08T07:55:05.418Z,100.00
2022-08-08T07:56:00.561Z,100.00
2022-08-08T07:57:29.812Z,100.00
2022-08-08T07:58:32.710Z,100.00
2022-08-08T07:59:25.336Z,100.00
2022-08-08T08:00:16.148Z,100.00
2022-08-08T08:02:36.761Z,100.00
2022-08-08T08:02:56.185Z,100.00
2022-08-08T08:03:55.287Z,100.00
2022-08-08T08:04:49.270Z,100.00
2022-08-08T08:05:50.889Z,100.00
2022-08-08T08:06:41.809Z,100.00
2022-08-08T08:07:38.693Z,97.38
2022-08-08T08:08:39.422Z,88.01
2022-08-08T08:09:40.240Z,81.18
2022-08-08T08:10:35.548Z,78.24
2022-08-08T08:11:38.413Z,75.66
2022-08-08T08:12:43.365Z,70.58
2022-08-08T08:13:42.483Z,71.09
2022-08-08T08:14:57.010Z,71.25
2022-08-08T08:15:44.069Z,71.53
2022-08-08T08:16:50.578Z,69.42
2022-08-08T08:17:48.928Z,69.62
2022-08-08T08:18:55.649Z,70.03
2022-08-08T08:19:48.343Z,69.09
2022-08-08T08:20:43.573Z,68.44
2022-08-08T08:21:52.796Z,66.10
2022-08-08T08:22:47.850Z,66.76
2022-08-08T08:23:40.977Z,67.45
2022-08-08T08:24:30.538Z,67.90
2022-08-08T08:25:43.116Z,67.15
2022-08-08T08:26:27.674Z,66.73
2022-08-08T08:27:17.685Z,66.42
2022-08-08T08:28:09.434Z,66.63
2022-08-08T08:28:56.866Z,67.11
2022-08-08T08:29:43.528Z,65.44
2022-08-08T08:30:32.386Z,65.49
2022-08-08T08:31:19.113Z,66.00
2022-08-08T08:32:06.243Z,65.68
2022-08-08T08:32:57.095Z,66.90
2022-08-08T08:33:50.623Z,64.97
2022-08-08T08:34:43.490Z,64.30
2022-08-08T08:36:19.628Z,65.04
2022-08-08T08:36:44.661Z,64.14
2022-08-08T08:38:13.307Z,63.41
2022-08-08T08:38:49.612Z,62.19
2022-08-08T08:40:01.402Z,62.87
2022-08-08T08:40:48.607Z,62.35
2022-08-08T08:41:41.020Z,62.08
2022-08-08T08:42:36.184Z,61.31
2022-08-08T08:43:29.180Z,61.79
2022-08-08T08:44:19.490Z,62.94
2022-08-08T08:45:21.771Z,63.75
2022-08-08T08:46:17.610Z,63.99
2022-08-08T08:47:08.129Z,64.43
2022-08-08T08:47:58.423Z,63.37
2022-08-08T08:48:50.086Z,63.04
2022-08-08T08:49:38.557Z,63.53
2022-08-08T08:50:34.428Z,62.45
2022-08-08T08:51:28.693Z,62.48
2022-08-08T08:52:22.295Z,62.25
2022-08-08T08:53:28.016Z,60.62
2022-08-08T08:54:35.220Z,59.56
2022-08-08T08:55:25.295Z,59.91
2022-08-08T08:56:24.001Z,59.08
2022-08-08T08:57:17.495Z,59.32
2022-08-08T08:58:19.705Z,60.54
2022-08-08T08:59:09.024Z,60.47
2022-08-08T09:00:14.786Z,59.64
2022-08-08T09:01:09.735Z,59.00
2022-08-08T09:01:58.577Z,60.07
2022-08-08T09:02:51.669Z,59.69
2022-08-08T09:03:45.969Z,60.17
2022-08-08T09:04:39.567Z,58.89
2022-08-08T09:05:54.089Z,58.36
2022-08-08T09:06:50.447Z,58.39
2022-08-08T09:07:52.132Z,57.00
2022-08-08T09:09:00.400Z,57.33
2022-08-08T09:09:55.250Z,58.16
2022-08-08T09:10:48.653Z,56.64
2022-08-08T09:11:47.718Z,56.27
2022-08-08T09:12:47.625Z,54.46
2022-08-08T09:13:40.095Z,54.16
2022-08-08T09:14:27.260Z,53.75
2022-08-08T09:15:24.239Z,52.33
2022-08-08T09:16:26.717Z,52.36
2022-08-08T09:17:19.179Z,52.28
2022-08-08T09:18:09.468Z,52.62
2022-08-08T09:18:58.055Z,52.45
2022-08-08T09:22:00.704Z,51.85
2022-08-08T09:22:00.861Z,51.97
2022-08-08T09:22:06.375Z,52.75
2022-08-08T09:22:58.660Z,51.59
2022-08-08T09:23:47.878Z,51.76
2022-08-08T09:24:36.263Z,51.59
2022-08-08T09:25:23.557Z,49.43
2022-08-08T09:26:41.222Z,49.89
2022-08-08T09:27:55.599Z,48.62
2022-08-08T09:28:44.269Z,49.53
2022-08-08T09:30:00.349Z,48.57
2022-08-08T09:30:53.554Z,47.36
2022-08-08T09:32:00.608Z,47.16
2022-08-08T09:33:12.407Z,46.43
2022-08-08T09:34:32.076Z,46.37
2022-08-08T09:35:20.642Z,46.31
2022-08-08T09:36:22.591Z,45.96
2022-08-08T09:37:59.038Z,45.86
2022-08-08T09:38:53.074Z,47.83
2022-08-08T09:40:13.027Z,46.06
2022-08-08T09:41:06.065Z,46.13
2022-08-08T09:42:20.794Z,46.19
2022-08-08T09:44:04.763Z,45.74
2022-08-08T09:45:15.630Z,45.29
2022-08-08T09:46:16.837Z,46.10
2022-08-08T09:47:26.908Z,45.16
2022-08-08T09:48:32.419Z,44.62
2022-08-08T09:49:42.067Z,44.18
2022-08-08T09:50:32.519Z,43.28
2022-08-08T09:51:31.351Z,44.48
2022-08-08T09:52:59.414Z,43.79
2022-08-08T09:53:56.593Z,43.27
2022-08-08T09:54:50.180Z,43.44
2022-08-08T09:56:04.646Z,43.41
2022-08-08T09:56:48.283Z,42.75
2022-08-08T09:57:46.202Z,42.57
2022-08-08T09:58:44.888Z,44.01
2022-08-08T10:00:01.638Z,42.66
2022-08-08T10:00:49.993Z,41.99
2022-08-08T10:02:00.046Z,42.83
2022-08-08T10:02:59.616Z,42.73
2022-08-08T10:03:56.141Z,42.65
2022-08-08T10:04:47.398Z,42.75
2022-08-08T10:05:37.749Z,43.68
2022-08-08T10:06:29.196Z,42.59
2022-08-08T10:07:17.278Z,42.91
2022-08-08T10:08:06.203Z,43.46
2022-08-08T10:08:56.824Z,43.62
2022-08-08T10:10:00.043Z,43.06
2022-08-08T10:10:51.445Z,43.45
2022-08-08T10:12:27.603Z,43.32
2022-08-08T10:12:54.095Z,42.68
2022-08-08T10:13:57.623Z,42.72
2022-08-08T10:14:44.389Z,42.46
2022-08-08T10:15:39.230Z,41.89
2022-08-08T10:16:54.728Z,41.49
2022-08-08T10:18:07.409Z,41.37
2022-08-08T10:19:03.357Z,41.69
2022-08-08T10:19:58.627Z,42.10
2022-08-08T10:21:00.692Z,41.84
2022-08-08T10:21:55.226Z,41.86
2022-08-08T10:22:57.120Z,43.28
2022-08-08T10:23:58.742Z,43.16
2022-08-08T10:24:49.575Z,41.90
2022-08-08T10:25:56.118Z,41.52
2022-08-08T10:27:00.303Z,42.41
2022-08-08T10:27:52.100Z,42.06
2022-08-08T10:28:56.375Z,41.57
2022-08-08T10:29:59.217Z,41.39
2022-08-08T10:31:01.240Z,41.54
2022-08-08T10:32:07.130Z,42.10
2022-08-08T10:33:00.370Z,41.25
2022-08-08T10:34:18.192Z,42.64
2022-08-08T10:36:08.126Z,43.27
2022-08-08T10:36:30.982Z,40.68
2022-08-08T10:37:30.672Z,41.02
2022-08-08T10:38:18.871Z,40.95
2022-08-08T10:39:09.689Z,41.01
2022-08-08T10:40:00.109Z,42.06
2022-08-08T10:40:54.578Z,42.33
2022-08-08T10:41:59.036Z,41.32
2022-08-08T10:43:03.861Z,42.21
2022-08-08T10:43:52.614Z,40.55
2022-08-08T10:44:41.833Z,40.77
2022-08-08T10:45:29.669Z,41.80
2022-08-08T10:46:29.643Z,41.97
2022-08-08T10:47:21.294Z,41.16
2022-08-08T10:48:11.432Z,40.88
2022-08-08T10:48:59.500Z,40.70
2022-08-08T10:50:01.507Z,40.90
2022-08-08T10:50:51.371Z,41.15
2022-08-08T10:51:40.950Z,40.14
2022-08-08T10:52:41.900Z,41.00
2022-08-08T10:53:56.536Z,41.02
2022-08-08T10:54:59.033Z,40.93
2022-08-08T10:55:57.833Z,40.95
2022-08-08T10:56:44.299Z,41.13
2022-08-08T10:57:50.154Z,40.25
2022-08-08T10:58:39.725Z,40.60
2022-08-08T10:59:45.234Z,40.93
2022-08-08T11:00:35.582Z,41.34
2022-08-08T11:01:39.532Z,42.03
2022-08-08T11:02:31.212Z,40.97
2022-08-08T11:03:19.008Z,39.99
2022-08-08T11:04:38.662Z,39.71
2022-08-08T11:05:27.553Z,39.22
2022-08-08T11:06:34.495Z,39.61
2022-08-08T11:08:30.079Z,39.46
2022-08-08T11:08:46.256Z,38.63
2022-08-08T11:09:46.893Z,40.43
2022-08-08T11:10:34.426Z,39.20
2022-08-08T11:11:32.799Z,39.39
2022-08-08T11:12:29.171Z,39.14
2022-08-08T11:13:30.038Z,39.09
2022-08-08T11:14:16.840Z,39.87
2022-08-08T11:15:04.482Z,39.59
2022-08-08T11:15:58.762Z,39.24
2022-08-08T11:16:49.401Z,39.86
2022-08-08T11:18:00.449Z,39.80
2022-08-08T11:18:47.652Z,38.34
2022-08-08T11:19:39.273Z,38.51
2022-08-08T11:20:28.914Z,39.45
2022-08-08T11:21:19.714Z,39.97
2022-08-08T11:22:09.550Z,39.41
2022-08-08T11:23:00.122Z,40.13
2022-08-08T11:24:02.212Z,39.67
2022-08-08T11:24:50.810Z,39.28
2022-08-08T11:25:52.809Z,39.09
2022-08-08T11:26:53.950Z,38.76
2022-08-08T11:27:47.846Z,38.73
2022-08-08T11:28:38.643Z,38.28
2022-08-08T11:29:50.949Z,38.83
2022-08-08T11:30:40.850Z,39.20
2022-08-08T11:31:46.632Z,38.98
2022-08-08T11:32:42.956Z,37.55
2022-08-08T11:33:53.211Z,37.82
2022-08-08T11:35:29.500Z,37.32
2022-08-08T11:36:03.137Z,38.30
2022-08-08T11:36:51.856Z,37.92
2022-08-08T11:38:36.925Z,37.64
2022-08-08T11:38:55.599Z,38.64
2022-08-08T11:39:43.799Z,37.69
2022-08-08T11:40:47.383Z,38.22
2022-08-08T11:41:39.052Z,38.08
2022-08-08T11:42:30.873Z,38.08
2022-08-08T11:43:19.398Z,38.09
2022-08-08T11:44:10.793Z,38.10
2022-08-08T11:44:59.856Z,37.88
2022-08-08T11:46:09.624Z,38.01
2022-08-08T11:46:57.759Z,38.39
2022-08-08T11:48:04.224Z,38.58
2022-08-08T11:48:51.757Z,38.54
2022-08-08T11:49:41.125Z,37.75
2022-08-08T11:50:30.267Z,38.00
2022-08-08T11:51:30.268Z,38.16
2022-08-08T11:52:31.864Z,38.28
2022-08-08T11:53:21.213Z,37.91
2022-08-08T11:54:31.122Z,38.21
2022-08-08T11:55:28.571Z,37.95
2022-08-08T11:56:21.088Z,38.25
2022-08-08T11:57:30.222Z,37.98
2022-08-08T11:58:33.018Z,37.54
2022-08-08T11:59:20.659Z,38.08
2022-08-08T12:00:28.694Z,38.66
2022-08-08T12:01:16.159Z,39.33
2022-08-08T12:02:31.146Z,39.11
2022-08-08T12:03:36.671Z,38.98
2022-08-08T12:04:23.606Z,39.14
2022-08-08T12:05:14.872Z,38.41
2022-08-08T12:06:17.401Z,39.10
2022-08-08T12:07:05.525Z,38.60
2022-08-08T12:08:01.148Z,39.17
2022-08-08T12:08:49.218Z,39.32
2022-08-08T12:09:59.735Z,38.44
2022-08-08T12:10:48.429Z,38.67
2022-08-08T12:11:41.707Z,38.48
2022-08-08T12:12:30.481Z,38.37
2022-08-08T12:13:38.320Z,37.83
2022-08-08T12:14:32.213Z,37.72
2022-08-08T12:15:39.978Z,37.85
2022-08-08T12:16:34.289Z,38.21
2022-08-08T12:17:41.041Z,37.50
2022-08-08T12:18:54.722Z,37.43
2022-08-08T12:19:51.594Z,38.35
2022-08-08T12:20:41.760Z,38.96
2022-08-08T12:22:00.636Z,39.11
2022-08-08T12:22:50.211Z,38.48
2022-08-08T12:23:43.692Z,38.38
2022-08-08T12:24:51.394Z,39.07
2022-08-08T12:25:44.797Z,39.43
2022-08-08T12:26:50.011Z,40.33
2022-08-08T12:27:45.330Z,40.24
2022-08-08T12:28:34.370Z,39.91
2022-08-08T12:29:42.237Z,40.09
2022-08-08T12:30:30.745Z,40.55
2022-08-08T12:31:18.625Z,39.62
2022-08-08T12:32:09.565Z,40.49
2022-08-08T12:32:59.917Z,40.05
2022-08-08T12:34:02.712Z,39.96
2022-08-08T12:35:01.222Z,39.81
2022-08-08T12:36:14.432Z,39.75
2022-08-08T12:37:08.546Z,40.02
2022-08-08T12:38:03.348Z,40.26
2022-08-08T12:38:55.389Z,40.12
2022-08-08T12:40:00.767Z,39.84
2022-08-08T12:40:58.479Z,40.14
2022-08-08T12:41:57.745Z,39.92
2022-08-08T12:42:48.899Z,39.77
2022-08-08T12:43:46.418Z,39.61
2022-08-08T12:44:42.670Z,40.15
2022-08-08T12:45:59.969Z,38.81
2022-08-08T12:47:00.062Z,38.96
2022-08-08T12:48:04.608Z,39.12
2022-08-08T12:49:22.098Z,39.13
2022-08-08T12:50:02.594Z,39.64
2022-08-08T12:50:57.507Z,39.55
2022-08-08T12:51:50.070Z,40.02
2022-08-08T12:52:42.390Z,40.04
2022-08-08T12:53:37.955Z,39.66
2022-08-08T12:54:37.232Z,39.46
2022-08-08T12:55:35.715Z,39.55
2022-08-08T12:56:40.245Z,38.90
2022-08-08T12:57:28.871Z,39.99
2022-08-08T12:58:19.659Z,40.01
2022-08-08T13:00:05.932Z,38.87
2022-08-08T13:01:11.962Z,39.25
2022-08-08T13:02:01.167Z,39.31
2022-08-08T13:02:58.294Z,39.16
2022-08-08T13:03:52.041Z,39.50